sensor_id;sensor_type;location;lat;lon;timestamp;pressure;altitude;pressure_sealevel;temperature;humidity
18988;BME280;5494;51.796;10.952;2023-06-24T00:00:56;99788.25;;;14.91;100.00
18988;BME280;5494;51.796;10.952;2023-06-24T00:03:24;99795.81;;;14.80;100.00
18988;BME280;5494;51.796;10.952;2023-06-24T00:05:57;99797.69;;;14.78;100.00
18988;BME280;5494;51.796;10.952;2023-06-24T00:08:30;99797.41;;;14.67;100.00
18988;BME280;5494;51.796;10.952;2023-06-24T00:11:01;99797.53;;;14.66;100.00
18988;BME280;5494;51.796;10.952;2023-06-24T00:13:29;99801.47;;;14.57;100.00
18988;BME280;5494;51.796;10.952;2023-06-24T00:15:57;99797.31;;;14.53;100.00
18988;BME280;5494;51.796;10.952;2023-06-24T00:18:25;99798.34;;;14.50;100.00
18988;BME280;5494;51.796;10.952;2023-06-24T00:20:57;99801.03;;;14.49;100.00
18988;BME280;5494;51.796;10.952;2023-06-24T00:23:25;99805.50;;;14.47;100.00
18988;BME280;5494;51.796;10.952;2023-06-24T00:25:54;99801.44;;;14.41;100.00
18988;BME280;5494;51.796;10.952;2023-06-24T00:28:23;99803.22;;;14.41;100.00
18988;BME280;5494;51.796;10.952;2023-06-24T00:30:52;99801.66;;;14.37;100.00
18988;BME280;5494;51.796;10.952;2023-06-24T00:33:20;99797.34;;;14.36;100.00
18988;BME280;5494;51.796;10.952;2023-06-24T00:35:49;99804.84;;;14.43;100.00
18988;BME280;5494;51.796;10.952;2023-06-24T00:38:19;99793.81;;;14.37;100.00
18988;BME280;5494;51.796;10.952;2023-06-24T00:40:47;99805.13;;;14.37;100.00
18988;BME280;5494;51.796;10.952;2023-06-24T00:43:16;99815.38;;;14.42;100.00
18988;BME280;5494;51.796;10.952;2023-06-24T00:45:44;99813.31;;;14.31;100.00
18988;BME280;5494;51.796;10.952;2023-06-24T00:48:16;99820.38;;;14.29;100.00
18988;BME280;5494;51.796;10.952;2023-06-24T00:50:44;99816.53;;;14.19;100.00
18988;BME280;5494;51.796;10.952;2023-06-24T00:53:12;99815.28;;;14.10;100.00
18988;BME280;5494;51.796;10.952;2023-06-24T00:55:42;99806.19;;;14.00;100.00
18988;BME280;5494;51.796;10.952;2023-06-24T00:58:14;99821.03;;;14.00;100.00
18988;BME280;5494;51.796;10.952;2023-06-24T01:00:45;99820.03;;;14.02;100.00
18988;BME280;5494;51.796;10.952;2023-06-24T01:03:14;99822.47;;;14.05;100.00
18988;BME280;5494;51.796;10.952;2023-06-24T01:05:44;99820.03;;;14.02;100.00
18988;BME280;5494;51.796;10.952;2023-06-24T01:08:13;99817.75;;;13.96;100.00
18988;BME280;5494;51.796;10.952;2023-06-24T01:10:46;99826.66;;;13.92;100.00
18988;BME280;5494;51.796;10.952;2023-06-24T01:13:14;99829.13;;;13.95;100.00
18988;BME280;5494;51.796;10.952;2023-06-24T01:15:42;99829.56;;;13.86;100.00
18988;BME280;5494;51.796;10.952;2023-06-24T01:18:20;99825.34;;;13.84;100.00
18988;BME280;5494;51.796;10.952;2023-06-24T01:20:55;99819.50;;;13.78;100.00
18988;BME280;5494;51.796;10.952;2023-06-24T01:24:14;99826.97;;;13.69;100.00
18988;BME280;5494;51.796;10.952;2023-06-24T01:27:19;99824.63;;;13.63;100.00
18988;BME280;5494;51.796;10.952;2023-06-24T01:30:22;99821.41;;;13.92;100.00
18988;BME280;5494;51.796;10.952;2023-06-24T01:33:04;99824.50;;;14.00;100.00
18988;BME280;5494;51.796;10.952;2023-06-24T01:35:37;99819.34;;;13.99;100.00
18988;BME280;5494;51.796;10.952;2023-06-24T01:38:10;99824.78;;;13.77;100.00
18988;BME280;5494;51.796;10.952;2023-06-24T01:40:45;99826.81;;;13.55;100.00
18988;BME280;5494;51.796;10.952;2023-06-24T01:43:15;99814.56;;;13.38;100.00
18988;BME280;5494;51.796;10.952;2023-06-24T01:45:49;99813.09;;;13.32;100.00
18988;BME280;5494;51.796;10.952;2023-06-24T01:48:25;99809.78;;;13.29;100.00
18988;BME280;5494;51.796;10.952;2023-06-24T01:51:00;99801.56;;;13.19;100.00
18988;BME280;5494;51.796;10.952;2023-06-24T01:53:32;99794.41;;;13.23;100.00
18988;BME280;5494;51.796;10.952;2023-06-24T01:56:03;99792.16;;;13.15;100.00
18988;BME280;5494;51.796;10.952;2023-06-24T01:58:35;99791.41;;;13.13;100.00
18988;BME280;5494;51.796;10.952;2023-06-24T02:01:05;99788.00;;;13.11;100.00
18988;BME280;5494;51.796;10.952;2023-06-24T02:03:39;99791.03;;;13.02;100.00
18988;BME280;5494;51.796;10.952;2023-06-24T02:06:09;99784.75;;;13.06;100.00
18988;BME280;5494;51.796;10.952;2023-06-24T02:08:41;99783.81;;;13.07;100.00
18988;BME280;5494;51.796;10.952;2023-06-24T02:11:15;99783.91;;;13.06;100.00
18988;BME280;5494;51.796;10.952;2023-06-24T02:13:44;99785.69;;;13.05;100.00
18988;BME280;5494;51.796;10.952;2023-06-24T02:16:17;99795.47;;;13.00;100.00
18988;BME280;5494;51.796;10.952;2023-06-24T02:18:46;99796.88;;;13.07;100.00
18988;BME280;5494;51.796;10.952;2023-06-24T02:21:17;99800.56;;;13.03;100.00
18988;BME280;5494;51.796;10.952;2023-06-24T02:23:48;99799.41;;;13.09;100.00
18988;BME280;5494;51.796;10.952;2023-06-24T02:26:17;99794.66;;;12.99;100.00
18988;BME280;5494;51.796;10.952;2023-06-24T02:28:47;99792.53;;;12.89;100.00
18988;BME280;5494;51.796;10.952;2023-06-24T02:31:17;99784.69;;;12.89;100.00
18988;BME280;5494;51.796;10.952;2023-06-24T02:33:46;99785.91;;;12.82;100.00
18988;BME280;5494;51.796;10.952;2023-06-24T02:36:15;99780.75;;;12.80;100.00
18988;BME280;5494;51.796;10.952;2023-06-24T02:38:42;99782.81;;;12.74;100.00
18988;BME280;5494;51.796;10.952;2023-06-24T02:41:12;99771.69;;;12.70;100.00
18988;BME280;5494;51.796;10.952;2023-06-24T02:43:41;99775.88;;;12.73;100.00
18988;BME280;5494;51.796;10.952;2023-06-24T02:46:10;99774.22;;;12.72;100.00
18988;BME280;5494;51.796;10.952;2023-06-24T02:48:47;99776.66;;;12.75;100.00
18988;BME280;5494;51.796;10.952;2023-06-24T02:51:16;99773.03;;;12.79;100.00
18988;BME280;5494;51.796;10.952;2023-06-24T02:53:46;99772.72;;;12.85;100.00
18988;BME280;5494;51.796;10.952;2023-06-24T02:56:16;99776.44;;;12.98;100.00
18988;BME280;5494;51.796;10.952;2023-06-24T02:58:48;99774.03;;;12.93;100.00
18988;BME280;5494;51.796;10.952;2023-06-24T03:01:22;99775.97;;;12.90;100.00
18988;BME280;5494;51.796;10.952;2023-06-24T03:03:57;99777.72;;;12.89;100.00
18988;BME280;5494;51.796;10.952;2023-06-24T03:06:25;99778.34;;;12.94;100.00
18988;BME280;5494;51.796;10.952;2023-06-24T03:08:59;99791.25;;;13.16;100.00
18988;BME280;5494;51.796;10.952;2023-06-24T03:11:31;99792.03;;;13.18;100.00
18988;BME280;5494;51.796;10.952;2023-06-24T03:13:59;99779.88;;;13.17;100.00
18988;BME280;5494;51.796;10.952;2023-06-24T03:16:36;99790.25;;;13.19;100.00
18988;BME280;5494;51.796;10.952;2023-06-24T03:19:12;99792.56;;;13.25;100.00
18988;BME280;5494;51.796;10.952;2023-06-24T03:21:41;99788.81;;;13.30;100.00
18988;BME280;5494;51.796;10.952;2023-06-24T03:24:12;99788.50;;;13.36;100.00
18988;BME280;5494;51.796;10.952;2023-06-24T03:26:43;99791.34;;;13.49;100.00
18988;BME280;5494;51.796;10.952;2023-06-24T03:29:13;99785.31;;;13.66;100.00
18988;BME280;5494;51.796;10.952;2023-06-24T03:31:50;99789.38;;;13.71;100.00
18988;BME280;5494;51.796;10.952;2023-06-24T03:34:23;99792.75;;;13.91;100.00
18988;BME280;5494;51.796;10.952;2023-06-24T03:36:52;99793.84;;;14.19;100.00
18988;BME280;5494;51.796;10.952;2023-06-24T03:39:22;99802.59;;;14.36;100.00
18988;BME280;5494;51.796;10.952;2023-06-24T03:41:50;99806.44;;;14.46;100.00
18988;BME280;5494;51.796;10.952;2023-06-24T03:44:18;99808.81;;;14.66;100.00
18988;BME280;5494;51.796;10.952;2023-06-24T03:46:47;99806.72;;;14.88;100.00
18988;BME280;5494;51.796;10.952;2023-06-24T03:49:15;99814.94;;;15.14;100.00
18988;BME280;5494;51.796;10.952;2023-06-24T03:51:45;99804.34;;;15.31;100.00
18988;BME280;5494;51.796;10.952;2023-06-24T03:54:13;99809.28;;;15.51;100.00
18988;BME280;5494;51.796;10.952;2023-06-24T03:56:41;99816.94;;;15.70;100.00
18988;BME280;5494;51.796;10.952;2023-06-24T03:59:10;99818.16;;;15.94;100.00
18988;BME280;5494;51.796;10.952;2023-06-24T04:01:39;99828.38;;;16.27;100.00
18988;BME280;5494;51.796;10.952;2023-06-24T04:04:08;99835.25;;;16.44;100.00
18988;BME280;5494;51.796;10.952;2023-06-24T04:06:36;99841.19;;;16.62;100.00
18988;BME280;5494;51.796;10.952;2023-06-24T04:09:05;99829.19;;;17.13;100.00
18988;BME280;5494;51.796;10.952;2023-06-24T04:11:35;99836.69;;;17.46;100.00
18988;BME280;5494;51.796;10.952;2023-06-24T04:14:03;99829.47;;;17.89;100.00
18988;BME280;5494;51.796;10.952;2023-06-24T04:16:33;99838.56;;;18.61;100.00
18988;BME280;5494;51.796;10.952;2023-06-24T04:19:01;99831.66;;;18.96;100.00
18988;BME280;5494;51.796;10.952;2023-06-24T04:21:30;99832.63;;;19.55;100.00
18988;BME280;5494;51.796;10.952;2023-06-24T04:23:58;99839.44;;;19.93;99.32
18988;BME280;5494;51.796;10.952;2023-06-24T04:26:28;99831.91;;;19.99;99.42
18988;BME280;5494;51.796;10.952;2023-06-24T04:28:56;99845.91;;;20.24;100.00
18988;BME280;5494;51.796;10.952;2023-06-24T04:31:25;99842.69;;;20.31;100.00
18988;BME280;5494;51.796;10.952;2023-06-24T04:33:54;99845.59;;;20.62;99.63
18988;BME280;5494;51.796;10.952;2023-06-24T04:36:23;99836.44;;;21.21;96.70
18988;BME280;5494;51.796;10.952;2023-06-24T04:38:51;99839.41;;;21.71;89.84
18988;BME280;5494;51.796;10.952;2023-06-24T04:41:19;99844.72;;;21.28;85.85
18988;BME280;5494;51.796;10.952;2023-06-24T04:43:49;99842.88;;;21.40;87.11
18988;BME280;5494;51.796;10.952;2023-06-24T04:46:17;99846.75;;;21.68;86.22
18988;BME280;5494;51.796;10.952;2023-06-24T04:48:45;99845.88;;;22.20;85.66
18988;BME280;5494;51.796;10.952;2023-06-24T04:51:14;99841.13;;;22.14;80.32
18988;BME280;5494;51.796;10.952;2023-06-24T04:53:42;99841.59;;;22.19;80.42
18988;BME280;5494;51.796;10.952;2023-06-24T04:56:10;99845.31;;;22.37;77.36
18988;BME280;5494;51.796;10.952;2023-06-24T04:58:38;99850.06;;;22.43;78.60
18988;BME280;5494;51.796;10.952;2023-06-24T05:01:08;99850.97;;;23.33;71.02
18988;BME280;5494;51.796;10.952;2023-06-24T05:03:36;99845.47;;;23.84;66.39
18988;BME280;5494;51.796;10.952;2023-06-24T05:06:04;99851.84;;;24.20;64.51
18988;BME280;5494;51.796;10.952;2023-06-24T05:08:32;99858.66;;;24.52;62.45
18988;BME280;5494;51.796;10.952;2023-06-24T05:11:00;99852.34;;;24.90;60.29
18988;BME280;5494;51.796;10.952;2023-06-24T05:13:28;99847.13;;;25.25;55.75
18988;BME280;5494;51.796;10.952;2023-06-24T05:15:56;99848.72;;;25.63;55.52
18988;BME280;5494;51.796;10.952;2023-06-24T05:18:25;99843.19;;;26.00;53.00
18988;BME280;5494;51.796;10.952;2023-06-24T05:20:54;99838.31;;;25.96;52.09
18988;BME280;5494;51.796;10.952;2023-06-24T05:23:22;99845.13;;;26.93;49.78
18988;BME280;5494;51.796;10.952;2023-06-24T05:25:50;99842.94;;;26.89;49.34
18988;BME280;5494;51.796;10.952;2023-06-24T05:28:18;99838.78;;;27.44;48.13
18988;BME280;5494;51.796;10.952;2023-06-24T05:30:46;99847.03;;;28.00;46.27
18988;BME280;5494;51.796;10.952;2023-06-24T05:33:15;99845.00;;;28.02;45.50
18988;BME280;5494;51.796;10.952;2023-06-24T05:35:44;99846.31;;;28.46;44.46
18988;BME280;5494;51.796;10.952;2023-06-24T05:38:12;99858.34;;;28.50;43.10
18988;BME280;5494;51.796;10.952;2023-06-24T05:40:40;99851.53;;;29.26;41.49
18988;BME280;5494;51.796;10.952;2023-06-24T05:43:08;99853.38;;;29.25;42.34
18988;BME280;5494;51.796;10.952;2023-06-24T05:45:37;99852.78;;;29.92;41.48
18988;BME280;5494;51.796;10.952;2023-06-24T05:48:06;99861.19;;;30.11;40.20
18988;BME280;5494;51.796;10.952;2023-06-24T05:50:34;99856.56;;;30.72;38.59
18988;BME280;5494;51.796;10.952;2023-06-24T05:53:03;99857.50;;;29.90;39.58
18988;BME280;5494;51.796;10.952;2023-06-24T05:55:31;99863.56;;;30.44;38.72
18988;BME280;5494;51.796;10.952;2023-06-24T05:58:00;99863.03;;;30.78;37.51
18988;BME280;5494;51.796;10.952;2023-06-24T06:00:28;99854.03;;;29.81;40.14
18988;BME280;5494;51.796;10.952;2023-06-24T06:02:56;99860.84;;;29.92;40.41
18988;BME280;5494;51.796;10.952;2023-06-24T06:05:24;99856.50;;;30.13;39.69
18988;BME280;5494;51.796;10.952;2023-06-24T06:07:53;99854.06;;;31.15;37.25
18988;BME280;5494;51.796;10.952;2023-06-24T06:10:22;99853.19;;;32.35;35.50
18988;BME280;5494;51.796;10.952;2023-06-24T06:12:50;99848.34;;;32.03;35.68
18988;BME280;5494;51.796;10.952;2023-06-24T06:15:19;99846.28;;;32.26;35.42
18988;BME280;5494;51.796;10.952;2023-06-24T06:17:47;99849.53;;;32.43;34.70
18988;BME280;5494;51.796;10.952;2023-06-24T06:20:15;99858.81;;;32.68;34.48
18988;BME280;5494;51.796;10.952;2023-06-24T06:22:43;99856.06;;;32.62;34.98
18988;BME280;5494;51.796;10.952;2023-06-24T06:25:11;99853.19;;;32.35;34.75
18988;BME280;5494;51.796;10.952;2023-06-24T06:27:41;99856.84;;;32.83;33.90
18988;BME280;5494;51.796;10.952;2023-06-24T06:30:10;99863.34;;;31.91;35.02
18988;BME280;5494;51.796;10.952;2023-06-24T06:32:39;99857.84;;;32.20;35.48
18988;BME280;5494;51.796;10.952;2023-06-24T06:35:07;99867.13;;;31.03;36.78
18988;BME280;5494;51.796;10.952;2023-06-24T06:37:36;99860.63;;;29.79;39.00
18988;BME280;5494;51.796;10.952;2023-06-24T06:40:07;99862.41;;;30.76;37.42
18988;BME280;5494;51.796;10.952;2023-06-24T06:42:35;99863.13;;;30.84;37.32
18988;BME280;5494;51.796;10.952;2023-06-24T06:45:06;99867.34;;;31.38;37.30
18988;BME280;5494;51.796;10.952;2023-06-24T06:47:34;99874.53;;;29.51;40.37
18988;BME280;5494;51.796;10.952;2023-06-24T06:50:03;99880.84;;;29.27;39.82
18988;BME280;5494;51.796;10.952;2023-06-24T06:52:31;99876.59;;;29.41;40.42
18988;BME280;5494;51.796;10.952;2023-06-24T06:55:00;99872.97;;;28.95;40.62
18988;BME280;5494;51.796;10.952;2023-06-24T06:57:28;99878.50;;;29.86;39.70
18988;BME280;5494;51.796;10.952;2023-06-24T06:59:56;99878.59;;;28.29;41.73
18988;BME280;5494;51.796;10.952;2023-06-24T07:02:26;99874.34;;;28.83;41.43
18988;BME280;5494;51.796;10.952;2023-06-24T07:04:54;99877.94;;;28.98;41.39
18988;BME280;5494;51.796;10.952;2023-06-24T07:07:22;99869.38;;;28.55;41.66
18988;BME280;5494;51.796;10.952;2023-06-24T07:09:50;99869.66;;;28.77;42.40
18988;BME280;5494;51.796;10.952;2023-06-24T07:12:18;99870.78;;;28.19;42.81
18988;BME280;5494;51.796;10.952;2023-06-24T07:14:47;99860.72;;;27.64;44.64
18988;BME280;5494;51.796;10.952;2023-06-24T07:17:15;99862.38;;;27.90;43.60
18988;BME280;5494;51.796;10.952;2023-06-24T07:19:45;99863.69;;;27.03;45.30
18988;BME280;5494;51.796;10.952;2023-06-24T07:22:13;99863.78;;;26.59;47.23
18988;BME280;5494;51.796;10.952;2023-06-24T07:24:41;99862.06;;;27.76;46.32
18988;BME280;5494;51.796;10.952;2023-06-24T07:27:10;99861.47;;;28.78;42.41
18988;BME280;5494;51.796;10.952;2023-06-24T07:29:38;99866.88;;;28.46;42.95
18988;BME280;5494;51.796;10.952;2023-06-24T07:32:07;99860.19;;;27.61;42.41
18988;BME280;5494;51.796;10.952;2023-06-24T07:34:35;99871.75;;;27.19;44.63
18988;BME280;5494;51.796;10.952;2023-06-24T07:37:04;99863.22;;;27.58;43.56
18988;BME280;5494;51.796;10.952;2023-06-24T07:39:48;99851.88;;;28.20;41.87
18988;BME280;5494;51.796;10.952;2023-06-24T07:42:16;99845.69;;;28.12;44.06
18988;BME280;5494;51.796;10.952;2023-06-24T07:44:46;99844.94;;;28.58;41.40
18988;BME280;5494;51.796;10.952;2023-06-24T07:47:17;99856.78;;;28.80;41.37
18988;BME280;5494;51.796;10.952;2023-06-24T07:49:45;99850.09;;;29.46;39.96
18988;BME280;5494;51.796;10.952;2023-06-24T07:52:14;99852.78;;;29.15;40.29
18988;BME280;5494;51.796;10.952;2023-06-24T07:54:43;99869.22;;;28.08;41.79
18988;BME280;5494;51.796;10.952;2023-06-24T07:57:11;99865.06;;;26.47;47.39
18988;BME280;5494;51.796;10.952;2023-06-24T07:59:39;99868.66;;;27.48;46.15
18988;BME280;5494;51.796;10.952;2023-06-24T08:02:07;99850.19;;;27.71;45.09
18988;BME280;5494;51.796;10.952;2023-06-24T08:04:35;99860.53;;;27.74;43.21
18988;BME280;5494;51.796;10.952;2023-06-24T08:07:03;99866.09;;;27.22;44.89
18988;BME280;5494;51.796;10.952;2023-06-24T08:09:33;99859.00;;;27.55;44.32
18988;BME280;5494;51.796;10.952;2023-06-24T08:12:01;99848.78;;;28.56;42.19
18988;BME280;5494;51.796;10.952;2023-06-24T08:14:29;99857.03;;;28.30;43.66
18988;BME280;5494;51.796;10.952;2023-06-24T08:16:57;99851.81;;;28.61;40.72
18988;BME280;5494;51.796;10.952;2023-06-24T08:19:25;99853.31;;;28.55;41.10
18988;BME280;5494;51.796;10.952;2023-06-24T08:21:53;99856.53;;;28.02;41.29
18988;BME280;5494;51.796;10.952;2023-06-24T08:24:21;99864.72;;;27.76;42.39
18988;BME280;5494;51.796;10.952;2023-06-24T08:26:51;99856.53;;;27.70;42.47
18988;BME280;5494;51.796;10.952;2023-06-24T08:29:19;99853.78;;;27.37;44.23
18988;BME280;5494;51.796;10.952;2023-06-24T08:31:47;99851.28;;;28.57;41.99
18988;BME280;5494;51.796;10.952;2023-06-24T08:34:15;99857.69;;;28.08;39.74
18988;BME280;5494;51.796;10.952;2023-06-24T08:36:44;99864.53;;;27.62;40.15
18988;BME280;5494;51.796;10.952;2023-06-24T08:39:12;99875.59;;;28.40;40.98
18988;BME280;5494;51.796;10.952;2023-06-24T08:41:40;99863.50;;;28.60;39.45
18988;BME280;5494;51.796;10.952;2023-06-24T08:44:14;99867.91;;;28.12;40.00
18988;BME280;5494;51.796;10.952;2023-06-24T08:46:43;99865.22;;;27.64;41.36
18988;BME280;5494;51.796;10.952;2023-06-24T08:49:26;99872.50;;;27.37;42.11
18988;BME280;5494;51.796;10.952;2023-06-24T08:52:02;99869.91;;;27.86;39.50
18988;BME280;5494;51.796;10.952;2023-06-24T08:54:35;99873.50;;;27.44;41.59
18988;BME280;5494;51.796;10.952;2023-06-24T08:57:03;99874.94;;;28.21;41.44
18988;BME280;5494;51.796;10.952;2023-06-24T08:59:37;99869.72;;;28.52;38.38
18988;BME280;5494;51.796;10.952;2023-06-24T09:02:05;99864.91;;;27.83;38.98
18988;BME280;5494;51.796;10.952;2023-06-24T09:04:34;99867.41;;;27.85;39.28
18988;BME280;5494;51.796;10.952;2023-06-24T09:07:03;99864.19;;;27.73;37.86
18988;BME280;5494;51.796;10.952;2023-06-24T09:09:43;99865.06;;;28.38;37.86
18988;BME280;5494;51.796;10.952;2023-06-24T09:12:14;99853.06;;;28.89;37.15
18988;BME280;5494;51.796;10.952;2023-06-24T09:14:49;99854.63;;;29.15;35.01
18988;BME280;5494;51.796;10.952;2023-06-24T09:17:18;99857.72;;;29.34;34.11
18988;BME280;5494;51.796;10.952;2023-06-24T09:19:49;99855.34;;;29.01;33.36
18988;BME280;5494;51.796;10.952;2023-06-24T09:22:18;99847.75;;;29.51;33.89
18988;BME280;5494;51.796;10.952;2023-06-24T09:24:47;99852.00;;;29.60;33.30
18988;BME280;5494;51.796;10.952;2023-06-24T09:27:17;99865.50;;;29.52;32.69
18988;BME280;5494;51.796;10.952;2023-06-24T09:29:48;99854.97;;;29.88;32.02
18988;BME280;5494;51.796;10.952;2023-06-24T09:32:16;99858.16;;;29.07;33.51
18988;BME280;5494;51.796;10.952;2023-06-24T09:34:44;99854.03;;;27.76;33.77
18988;BME280;5494;51.796;10.952;2023-06-24T09:37:21;99850.09;;;28.68;34.24
18988;BME280;5494;51.796;10.952;2023-06-24T09:39:50;99858.06;;;28.92;33.91
18988;BME280;5494;51.796;10.952;2023-06-24T09:42:21;99850.84;;;28.21;35.14
18988;BME280;5494;51.796;10.952;2023-06-24T09:44:54;99847.94;;;28.64;34.78
18988;BME280;5494;51.796;10.952;2023-06-24T09:47:23;99845.56;;;29.16;32.81
18988;BME280;5494;51.796;10.952;2023-06-24T09:49:53;99843.59;;;29.10;33.21
18988;BME280;5494;51.796;10.952;2023-06-24T09:52:23;99835.78;;;28.45;35.34
18988;BME280;5494;51.796;10.952;2023-06-24T09:54:54;99829.25;;;29.03;34.06
18988;BME280;5494;51.796;10.952;2023-06-24T09:57:29;99826.63;;;28.86;33.95
18988;BME280;5494;51.796;10.952;2023-06-24T10:00:01;99823.50;;;29.45;33.84
18988;BME280;5494;51.796;10.952;2023-06-24T10:02:32;99836.84;;;29.22;33.64
18988;BME280;5494;51.796;10.952;2023-06-24T10:05:01;99824.38;;;29.60;34.21
18988;BME280;5494;51.796;10.952;2023-06-24T10:07:31;99823.41;;;29.53;33.82
18988;BME280;5494;51.796;10.952;2023-06-24T10:10:03;99838.50;;;28.20;35.23
18988;BME280;5494;51.796;10.952;2023-06-24T10:12:33;99830.31;;;27.57;36.65
18988;BME280;5494;51.796;10.952;2023-06-24T10:15:05;99833.09;;;27.31;37.18
18988;BME280;5494;51.796;10.952;2023-06-24T10:17:34;99824.09;;;28.30;36.42
18988;BME280;5494;51.796;10.952;2023-06-24T10:20:06;99817.25;;;28.90;34.78
18988;BME280;5494;51.796;10.952;2023-06-24T10:22:35;99814.94;;;28.79;33.85
18988;BME280;5494;51.796;10.952;2023-06-24T10:25:06;99828.88;;;28.58;33.30
18988;BME280;5494;51.796;10.952;2023-06-24T10:27:39;99819.13;;;28.82;34.72
18988;BME280;5494;51.796;10.952;2023-06-24T10:30:18;99819.97;;;27.78;36.26
18988;BME280;5494;51.796;10.952;2023-06-24T10:32:51;99835.38;;;27.26;36.61
18988;BME280;5494;51.796;10.952;2023-06-24T10:35:25;99828.16;;;26.43;39.06
18988;BME280;5494;51.796;10.952;2023-06-24T10:37:59;99833.31;;;27.04;38.16
18988;BME280;5494;51.796;10.952;2023-06-24T10:40:38;99827.53;;;27.17;38.53
18988;BME280;5494;51.796;10.952;2023-06-24T10:43:27;99828.06;;;27.36;38.75
18988;BME280;5494;51.796;10.952;2023-06-24T10:45:58;99827.63;;;26.99;38.74
18988;BME280;5494;51.796;10.952;2023-06-24T10:48:26;99830.25;;;26.91;39.94
18988;BME280;5494;51.796;10.952;2023-06-24T10:50:54;99824.66;;;26.76;41.23
18988;BME280;5494;51.796;10.952;2023-06-24T10:53:22;99826.53;;;26.84;40.82
18988;BME280;5494;51.796;10.952;2023-06-24T10:55:51;99822.78;;;26.94;39.95
18988;BME280;5494;51.796;10.952;2023-06-24T10:58:19;99821.16;;;27.18;39.84
18988;BME280;5494;51.796;10.952;2023-06-24T11:00:47;99817.84;;;26.22;39.87
18988;BME280;5494;51.796;10.952;2023-06-24T11:03:18;99820.97;;;25.56;42.48
18988;BME280;5494;51.796;10.952;2023-06-24T11:05:48;99811.31;;;25.91;41.21
18988;BME280;5494;51.796;10.952;2023-06-24T11:08:16;99815.50;;;26.19;41.16
18988;BME280;5494;51.796;10.952;2023-06-24T11:10:46;99814.53;;;26.46;41.47
18988;BME280;5494;51.796;10.952;2023-06-24T11:13:15;99818.03;;;26.46;41.02
18988;BME280;5494;51.796;10.952;2023-06-24T11:15:47;99808.84;;;26.23;41.74
18988;BME280;5494;51.796;10.952;2023-06-24T11:18:17;99812.81;;;26.37;42.10
18988;BME280;5494;51.796;10.952;2023-06-24T11:20:45;99816.72;;;26.50;41.07
18988;BME280;5494;51.796;10.952;2023-06-24T11:23:13;99811.50;;;26.41;42.35
18988;BME280;5494;51.796;10.952;2023-06-24T11:25:43;99805.44;;;25.87;42.64
18988;BME280;5494;51.796;10.952;2023-06-24T11:28:16;99802.63;;;26.14;43.21
18988;BME280;5494;51.796;10.952;2023-06-24T11:30:49;99806.47;;;25.86;43.59
18988;BME280;5494;51.796;10.952;2023-06-24T11:33:28;99803.44;;;25.63;43.79
18988;BME280;5494;51.796;10.952;2023-06-24T11:35:56;99799.66;;;25.56;44.74
18988;BME280;5494;51.796;10.952;2023-06-24T11:38:24;99802.13;;;25.67;45.18
18988;BME280;5494;51.796;10.952;2023-06-24T11:40:59;99802.00;;;25.95;43.46
18988;BME280;5494;51.796;10.952;2023-06-24T11:43:27;99793.16;;;25.94;43.04
18988;BME280;5494;51.796;10.952;2023-06-24T11:45:55;99795.41;;;25.81;42.63
18988;BME280;5494;51.796;10.952;2023-06-24T11:48:28;99794.97;;;25.68;44.59
18988;BME280;5494;51.796;10.952;2023-06-24T11:50:56;99792.09;;;26.05;44.10
18988;BME280;5494;51.796;10.952;2023-06-24T11:53:30;99782.34;;;25.17;46.64
18988;BME280;5494;51.796;10.952;2023-06-24T11:55:59;99783.38;;;25.41;46.55
18988;BME280;5494;51.796;10.952;2023-06-24T11:58:28;99784.78;;;25.63;45.31
18988;BME280;5494;51.796;10.952;2023-06-24T12:00:59;99782.19;;;25.71;44.30
18988;BME280;5494;51.796;10.952;2023-06-24T12:03:29;99784.16;;;25.69;44.50
18988;BME280;5494;51.796;10.952;2023-06-24T12:05:59;99783.81;;;25.64;44.04
18988;BME280;5494;51.796;10.952;2023-06-24T12:08:27;99777.47;;;25.30;43.91
18988;BME280;5494;51.796;10.952;2023-06-24T12:11:15;99773.19;;;25.01;45.45
18988;BME280;5494;51.796;10.952;2023-06-24T12:13:43;99772.69;;;24.88;46.49
18988;BME280;5494;51.796;10.952;2023-06-24T12:16:11;99770.00;;;25.16;47.15
18988;BME280;5494;51.796;10.952;2023-06-24T12:18:41;99770.13;;;24.96;48.62
18988;BME280;5494;51.796;10.952;2023-06-24T12:21:09;99767.41;;;24.79;47.23
18988;BME280;5494;51.796;10.952;2023-06-24T12:23:37;99765.84;;;24.58;48.48
18988;BME280;5494;51.796;10.952;2023-06-24T12:26:05;99770.75;;;24.53;49.74
18988;BME280;5494;51.796;10.952;2023-06-24T12:28:33;99774.50;;;24.60;48.50
18988;BME280;5494;51.796;10.952;2023-06-24T12:31:01;99774.53;;;24.51;50.89
18988;BME280;5494;51.796;10.952;2023-06-24T12:33:30;99773.22;;;24.27;49.61
18988;BME280;5494;51.796;10.952;2023-06-24T12:35:59;99756.31;;;24.28;51.61
18988;BME280;5494;51.796;10.952;2023-06-24T12:38:27;99763.47;;;24.55;50.99
18988;BME280;5494;51.796;10.952;2023-06-24T12:40:57;99754.81;;;24.81;48.96
18988;BME280;5494;51.796;10.952;2023-06-24T12:43:25;99757.41;;;24.63;49.13
18988;BME280;5494;51.796;10.952;2023-06-24T12:45:53;99744.69;;;24.84;49.80
18988;BME280;5494;51.796;10.952;2023-06-24T12:48:22;99743.69;;;24.95;49.41
18988;BME280;5494;51.796;10.952;2023-06-24T12:50:50;99747.19;;;24.95;50.18
18988;BME280;5494;51.796;10.952;2023-06-24T12:53:22;99735.31;;;25.07;49.89
18988;BME280;5494;51.796;10.952;2023-06-24T12:55:50;99740.97;;;25.22;48.68
18988;BME280;5494;51.796;10.952;2023-06-24T12:58:21;99740.94;;;25.04;49.71
18988;BME280;5494;51.796;10.952;2023-06-24T13:00:50;99734.97;;;24.75;50.40
18988;BME280;5494;51.796;10.952;2023-06-24T13:03:18;99739.63;;;24.91;51.00
18988;BME280;5494;51.796;10.952;2023-06-24T13:05:46;99739.97;;;25.23;51.48
18988;BME280;5494;51.796;10.952;2023-06-24T13:08:14;99744.28;;;25.24;50.08
18988;BME280;5494;51.796;10.952;2023-06-24T13:10:43;99743.75;;;25.38;50.21
18988;BME280;5494;51.796;10.952;2023-06-24T13:13:11;99744.97;;;25.26;49.82